Bixby, Oklahoma
Current Conditions -  °F | °C
As of 5:53 PM on Sunday 21 Dec 2014 (Local Time) from KRVS Reporting Station
Overcast Overcast  
Wind Chill: 42°   Ceiling: 2100
Heat Index: 48°   Visibility: 10mi
Dew Point: 40°   Wind: 15mph
Humidity: 74%   Direction: 160°SSE
Pressure: 29.83"   Gusts: 22mph
Location:  35.94°N, 95.88°W
Report Text: KRVS 212353Z 16013G19KT 10SM OVC021 09/04 A2983 RMK AO2 SLP105 T00890044 10094 20083 56007
Loading
Personal Weather Stations






























Interactive Weather Map New forecast layout! Learn more

10-Day Weather Forecast

Advertisements
Track Severe Weather on mobile